createdAt,value
2018-09-17T00:01:37.601Z,6.70
2018-09-17T00:04:06.676Z,6.77
2018-09-17T00:06:35.449Z,6.03
2018-09-17T00:09:04.317Z,6.17
2018-09-17T00:11:33.388Z,6.47
2018-09-17T00:14:02.654Z,6.80
2018-09-17T00:16:32.027Z,6.20
2018-09-17T00:19:01.030Z,6.97
2018-09-17T00:21:30.060Z,7.20
2018-09-17T00:23:59.166Z,6.90
2018-09-17T00:26:27.901Z,6.67
2018-09-17T00:28:56.681Z,6.27
2018-09-17T00:31:25.443Z,7.47
2018-09-17T00:33:54.482Z,6.83
2018-09-17T00:36:23.588Z,7.17
2018-09-17T00:38:52.442Z,7.00
2018-09-17T00:41:21.226Z,7.90
2018-09-17T00:43:50.764Z,7.20
2018-09-17T00:46:19.526Z,6.87
2018-09-17T00:48:48.825Z,7.43
2018-09-17T00:51:18.283Z,6.70
2018-09-17T00:53:47.104Z,7.90
2018-09-17T00:56:15.860Z,6.80
2018-09-17T00:58:45.233Z,8.03
2018-09-17T01:01:14.035Z,7.37
2018-09-17T01:03:43.294Z,8.33
2018-09-17T01:06:12.039Z,8.40
2018-09-17T01:08:40.765Z,7.40
2018-09-17T01:11:09.635Z,7.40
2018-09-17T01:13:38.699Z,8.47
2018-09-17T01:16:08.058Z,7.30
2018-09-17T01:18:36.775Z,7.80
2018-09-17T01:21:05.988Z,7.53
2018-09-17T01:23:34.990Z,8.00
2018-09-17T01:26:03.742Z,6.40
2018-09-17T01:28:32.514Z,7.23
2018-09-17T01:31:01.291Z,8.70
2018-09-17T01:33:30.010Z,8.70
2018-09-17T01:35:59.033Z,8.63
2018-09-17T01:38:29.175Z,7.70
2018-09-17T01:40:58.821Z,7.53
2018-09-17T01:43:27.914Z,8.47
2018-09-17T01:45:57.255Z,8.37
2018-09-17T01:48:26.497Z,8.63
2018-09-17T01:50:55.775Z,8.27
2018-09-17T01:53:25.140Z,7.20
2018-09-17T01:55:54.697Z,8.00
2018-09-17T01:58:23.503Z,8.27
2018-09-17T02:00:52.509Z,8.20
2018-09-17T02:03:21.242Z,8.63
2018-09-17T02:05:49.951Z,8.43
2018-09-17T02:08:18.673Z,8.20
2018-09-17T02:10:47.443Z,8.27
2018-09-17T02:13:16.411Z,8.97
2018-09-17T02:15:45.114Z,8.07
2018-09-17T02:18:13.868Z,7.90
2018-09-17T02:20:43.329Z,8.40
2018-09-17T02:23:18.616Z,7.80
2018-09-17T02:25:47.909Z,8.33
2018-09-17T02:28:17.175Z,9.37
2018-09-17T02:30:45.920Z,7.90
2018-09-17T02:33:15.296Z,9.00
2018-09-17T02:35:44.821Z,9.73
2018-09-17T02:38:14.523Z,9.23
2018-09-17T02:40:43.574Z,9.80
2018-09-17T02:43:12.652Z,9.93
2018-09-17T02:45:41.383Z,9.50
2018-09-17T02:48:10.455Z,9.13
2018-09-17T02:50:39.762Z,9.40
2018-09-17T02:53:08.525Z,10.53
2018-09-17T02:55:37.819Z,10.27
2018-09-17T02:58:07.208Z,8.60
2018-09-17T03:00:36.258Z,10.03
2018-09-17T03:03:05.027Z,10.00
2018-09-17T03:05:33.803Z,9.70
2018-09-17T03:08:02.810Z,10.77
2018-09-17T03:10:32.070Z,9.27
2018-09-17T03:13:01.055Z,10.30
2018-09-17T03:15:40.828Z,10.23
2018-09-17T03:18:10.247Z,9.60
2018-09-17T03:20:39.050Z,10.67
2018-09-17T03:23:07.758Z,10.63
2018-09-17T03:25:36.850Z,11.30
2018-09-17T03:28:05.986Z,10.90
2018-09-17T03:30:34.712Z,11.20
2018-09-17T03:33:04.224Z,10.73
2018-09-17T03:35:33.011Z,11.47
2018-09-17T03:38:15.822Z,10.57
2018-09-17T03:40:45.007Z,10.53
2018-09-17T03:43:14.034Z,10.97
2018-09-17T03:45:42.807Z,10.60
2018-09-17T03:48:11.975Z,12.60
2018-09-17T03:50:40.993Z,10.60
2018-09-17T03:53:10.055Z,12.03
2018-09-17T03:55:39.231Z,11.60
2018-09-17T03:58:08.045Z,12.00
2018-09-17T04:00:37.227Z,13.37
2018-09-17T04:03:06.396Z,12.10
2018-09-17T04:05:35.611Z,12.93
2018-09-17T04:08:04.914Z,10.90
2018-09-17T04:10:33.731Z,11.50
2018-09-17T04:13:02.479Z,11.67
2018-09-17T04:15:31.208Z,11.80
2018-09-17T04:18:00.857Z,11.50
2018-09-17T04:20:29.888Z,12.30
2018-09-17T04:22:58.813Z,11.90
2018-09-17T04:25:27.972Z,13.60
2018-09-17T04:27:57.256Z,12.10
2018-09-17T04:30:25.970Z,11.63
2018-09-17T04:32:55.062Z,11.80
2018-09-17T04:35:23.789Z,12.03
2018-09-17T04:37:52.578Z,11.87
2018-09-17T04:40:21.683Z,13.00
2018-09-17T04:42:50.731Z,11.63
2018-09-17T04:45:19.785Z,12.17
2018-09-17T04:47:48.519Z,11.17
2018-09-17T04:50:17.523Z,12.03
2018-09-17T04:52:46.299Z,12.33
2018-09-17T04:55:15.019Z,12.80
2018-09-17T04:57:44.436Z,11.77
2018-09-17T05:00:13.246Z,12.70
2018-09-17T05:02:42.078Z,12.37
2018-09-17T05:05:11.447Z,12.53
2018-09-17T05:07:40.182Z,14.67
2018-09-17T05:10:08.961Z,13.07
2018-09-17T05:12:38.085Z,12.33
2018-09-17T05:15:07.350Z,12.40
2018-09-17T05:17:36.441Z,12.53
2018-09-17T05:20:05.648Z,12.70
2018-09-17T05:22:34.362Z,12.83
2018-09-17T05:25:03.093Z,13.00
2018-09-17T05:27:32.376Z,12.80
2018-09-17T05:30:01.102Z,12.13
2018-09-17T05:32:30.221Z,12.33
2018-09-17T05:34:58.985Z,11.40
2018-09-17T05:37:28.619Z,11.63
2018-09-17T05:39:57.675Z,13.30
2018-09-17T05:42:26.726Z,12.60
2018-09-17T05:44:56.150Z,12.50
2018-09-17T05:47:25.090Z,12.07
2018-09-17T05:49:53.839Z,12.73
2018-09-17T05:52:22.919Z,13.00
2018-09-17T05:54:51.833Z,12.40
2018-09-17T05:57:20.728Z,11.17
2018-09-17T05:59:49.466Z,11.23
2018-09-17T06:02:18.580Z,11.80
2018-09-17T06:04:47.368Z,13.60
2018-09-17T06:07:16.203Z,12.47
2018-09-17T06:09:45.063Z,13.60
2018-09-17T06:12:14.172Z,14.40
2018-09-17T06:14:43.335Z,13.03
2018-09-17T06:17:13.330Z,13.97
2018-09-17T06:19:42.333Z,12.50
2018-09-17T06:22:11.341Z,13.90
2018-09-17T06:24:40.720Z,14.10
2018-09-17T06:27:09.526Z,14.27
2018-09-17T06:29:38.718Z,14.10
2018-09-17T06:32:07.454Z,14.57
2018-09-17T06:34:36.791Z,16.33
2018-09-17T06:37:06.155Z,22.40
2018-09-17T06:39:34.880Z,28.50
2018-09-17T06:42:03.988Z,28.17
2018-09-17T06:44:32.814Z,19.60
2018-09-17T06:47:01.944Z,16.43
2018-09-17T06:49:31.025Z,17.60
2018-09-17T06:52:00.159Z,19.07
2018-09-17T06:54:29.257Z,20.47
2018-09-17T06:56:58.575Z,17.77
2018-09-17T06:59:27.614Z,22.20
2018-09-17T07:01:56.495Z,20.57
2018-09-17T07:04:25.539Z,21.53
2018-09-17T07:06:54.825Z,19.77
2018-09-17T07:09:23.630Z,17.53
2018-09-17T07:11:52.510Z,17.77
2018-09-17T07:14:21.529Z,14.30
2018-09-17T07:16:50.691Z,14.13
2018-09-17T07:19:19.703Z,15.30
2018-09-17T07:21:48.775Z,14.87
2018-09-17T07:24:17.831Z,13.60
2018-09-17T07:26:46.539Z,14.60
2018-09-17T07:29:15.307Z,13.53
2018-09-17T07:31:50.247Z,14.33
2018-09-17T07:34:19.417Z,12.73
2018-09-17T07:36:48.689Z,11.10
2018-09-17T07:39:17.509Z,11.97
2018-09-17T07:41:46.482Z,10.77
2018-09-17T07:44:15.246Z,12.23
2018-09-17T07:46:44.005Z,11.93
2018-09-17T07:49:13.001Z,11.17
2018-09-17T07:51:41.834Z,10.80
2018-09-17T07:54:10.995Z,11.20
2018-09-17T07:56:39.801Z,10.83
2018-09-17T07:59:08.542Z,9.17
2018-09-17T08:01:37.950Z,9.53
2018-09-17T08:04:06.950Z,9.20
2018-09-17T08:06:35.830Z,9.70
2018-09-17T08:09:07.310Z,9.37
2018-09-17T08:11:36.501Z,8.90
2018-09-17T08:14:05.300Z,9.00
2018-09-17T08:16:34.327Z,8.90
2018-09-17T08:19:03.194Z,9.30
2018-09-17T08:21:31.920Z,8.37
2018-09-17T08:24:01.668Z,9.47
2018-09-17T08:26:31.376Z,7.40
2018-09-17T08:29:00.134Z,8.07
2018-09-17T08:31:28.945Z,7.90
2018-09-17T08:33:57.770Z,8.00
2018-09-17T08:36:26.517Z,7.97
2018-09-17T08:38:55.313Z,7.60
2018-09-17T08:41:24.693Z,7.67
2018-09-17T08:43:54.123Z,7.33
2018-09-17T08:46:23.121Z,7.43
2018-09-17T08:48:52.154Z,7.27
2018-09-17T08:51:20.899Z,7.27
2018-09-17T08:53:49.711Z,6.70
2018-09-17T08:56:26.582Z,6.50
2018-09-17T08:58:59.838Z,6.20
2018-09-17T09:02:33.572Z,7.63
2018-09-17T09:05:07.382Z,6.10
2018-09-17T09:07:37.149Z,6.70
2018-09-17T09:10:12.103Z,6.70
2018-09-17T09:12:41.956Z,4.93
2018-09-17T09:15:16.161Z,5.70
2018-09-17T09:17:45.162Z,6.10
2018-09-17T09:20:14.192Z,5.90
2018-09-17T09:22:43.206Z,5.80
2018-09-17T09:25:12.386Z,6.20
2018-09-17T09:27:42.124Z,5.23
2018-09-17T09:30:10.856Z,4.63
2018-09-17T09:32:40.347Z,5.13
2018-09-17T09:35:09.349Z,5.00
2018-09-17T09:37:38.628Z,5.67
2018-09-17T09:40:07.409Z,4.90
2018-09-17T09:42:36.594Z,4.83
2018-09-17T09:45:05.415Z,4.43
2018-09-17T09:47:34.543Z,4.47
2018-09-17T09:50:03.575Z,4.10
2018-09-17T09:52:33.376Z,4.10
2018-09-17T09:55:02.445Z,3.97
2018-09-17T09:57:31.600Z,3.97
2018-09-17T10:00:00.754Z,4.40
2018-09-17T10:02:31.523Z,3.70
2018-09-17T10:05:00.864Z,3.50
2018-09-17T10:07:29.974Z,3.30
2018-09-17T10:11:05.422Z,3.77
2018-09-17T10:13:39.571Z,3.33
2018-09-17T10:16:13.846Z,3.40
2018-09-17T10:18:48.012Z,3.70
2018-09-17T10:21:17.041Z,3.80
2018-09-17T10:23:46.942Z,3.47
2018-09-17T10:26:16.516Z,3.57
2018-09-17T10:28:45.832Z,3.40
2018-09-17T10:31:14.710Z,3.67
2018-09-17T10:33:43.517Z,3.53
2018-09-17T10:36:12.588Z,3.33
2018-09-17T10:38:42.335Z,3.23
2018-09-17T10:41:11.343Z,3.63
2018-09-17T10:43:40.128Z,3.30
2018-09-17T10:46:09.218Z,2.90
2018-09-17T10:48:38.006Z,2.63
2018-09-17T10:51:06.887Z,2.33
2018-09-17T10:53:35.908Z,1.87
2018-09-17T10:56:05.203Z,1.63
2018-09-17T10:58:34.549Z,1.80
2018-09-17T11:01:03.525Z,1.73
2018-09-17T11:03:32.886Z,2.50
2018-09-17T11:06:02.202Z,1.90
2018-09-17T11:08:31.556Z,2.23
2018-09-17T11:11:00.565Z,1.57
2018-09-17T11:13:29.553Z,1.73
2018-09-17T11:15:58.902Z,2.07
2018-09-17T11:18:28.054Z,1.80
2018-09-17T11:20:56.991Z,1.80
2018-09-17T11:23:26.022Z,1.77
2018-09-17T11:25:55.218Z,2.13
2018-09-17T11:28:24.323Z,1.97
2018-09-17T11:30:53.448Z,1.80
2018-09-17T11:33:22.190Z,2.00
2018-09-17T11:35:51.669Z,2.40
2018-09-17T11:38:23.486Z,2.33
2018-09-17T11:40:53.048Z,2.77
2018-09-17T11:43:21.901Z,2.27
2018-09-17T11:45:50.969Z,2.40
2018-09-17T11:48:19.857Z,2.70
2018-09-17T11:50:48.946Z,2.03
2018-09-17T11:53:18.893Z,1.77
2018-09-17T11:55:48.293Z,2.10
2018-09-17T11:58:17.340Z,2.10
2018-09-17T12:00:51.287Z,1.70
2018-09-17T12:03:25.144Z,2.47
2018-09-17T12:06:04.385Z,2.80
2018-09-17T12:08:33.750Z,1.90
2018-09-17T12:11:02.553Z,2.23
2018-09-17T12:13:31.585Z,2.43
2018-09-17T12:16:00.377Z,1.90
2018-09-17T12:18:29.628Z,2.97
2018-09-17T12:20:59.009Z,2.70
2018-09-17T12:23:28.386Z,2.20
2018-09-17T12:25:57.441Z,2.57
2018-09-17T12:28:26.226Z,2.17
2018-09-17T12:37:55.996Z,1.93
2018-09-17T12:40:25.951Z,2.33
2018-09-17T12:42:54.825Z,2.03
2018-09-17T12:45:24.436Z,1.93
2018-09-17T12:47:54.018Z,2.13
2018-09-17T12:50:23.140Z,2.23
2018-09-17T12:52:52.208Z,2.30
2018-09-17T12:55:21.007Z,2.30
2018-09-17T12:57:49.758Z,2.50
2018-09-17T13:00:18.770Z,2.20
2018-09-17T13:02:47.761Z,2.50
2018-09-17T13:05:16.618Z,2.63
2018-09-17T13:07:45.738Z,2.40
2018-09-17T13:10:14.827Z,2.80
2018-09-17T13:12:43.928Z,2.27
2018-09-17T13:15:12.739Z,2.83
2018-09-17T13:17:42.111Z,2.53
2018-09-17T13:20:11.119Z,2.40
2018-09-17T13:22:40.270Z,2.10
2018-09-17T13:25:09.294Z,2.90
2018-09-17T13:27:38.088Z,2.37
2018-09-17T13:30:07.274Z,2.67
2018-09-17T13:32:36.653Z,2.20
2018-09-17T13:35:05.781Z,2.87
2018-09-17T13:37:34.951Z,2.90
2018-09-17T13:40:03.751Z,2.30
2018-09-17T13:42:32.601Z,2.93
2018-09-17T13:45:01.396Z,2.60
2018-09-17T13:47:30.395Z,2.47
2018-09-17T13:49:59.609Z,2.83
2018-09-17T13:52:28.942Z,2.33
2018-09-17T13:54:57.703Z,2.67
2018-09-17T13:57:26.522Z,2.83
2018-09-17T13:59:55.357Z,2.87
2018-09-17T14:02:24.114Z,2.50
2018-09-17T14:04:53.166Z,2.50
2018-09-17T14:07:22.217Z,1.87
2018-09-17T14:09:51.003Z,2.40
2018-09-17T14:12:19.719Z,1.90
2018-09-17T14:14:48.710Z,1.80
2018-09-17T14:17:17.484Z,2.50
2018-09-17T14:19:46.871Z,2.40
2018-09-17T14:22:15.943Z,2.40
2018-09-17T14:24:44.683Z,2.40
2018-09-17T14:27:14.205Z,2.13
2018-09-17T14:29:43.277Z,2.43
2018-09-17T14:32:17.250Z,2.07
2018-09-17T14:34:46.408Z,2.40
2018-09-17T14:37:16.068Z,2.50
2018-09-17T14:39:44.906Z,2.23
2018-09-17T14:42:14.024Z,2.00
2018-09-17T14:44:43.136Z,2.47
2018-09-17T14:47:12.225Z,2.13
2018-09-17T14:49:41.453Z,1.90
2018-09-17T14:52:10.576Z,2.10
2018-09-17T14:54:39.469Z,1.90
2018-09-17T14:57:08.140Z,2.47
2018-09-17T14:59:37.420Z,1.97
2018-09-17T15:02:06.505Z,2.30
2018-09-17T15:04:35.357Z,1.77
2018-09-17T15:07:04.126Z,1.90
2018-09-17T15:09:32.884Z,2.03
2018-09-17T15:12:02.513Z,1.83
2018-09-17T15:14:31.344Z,1.90
2018-09-17T15:17:00.501Z,1.77
2018-09-17T15:19:29.279Z,2.50
2018-09-17T15:21:58.092Z,2.37
2018-09-17T15:24:26.965Z,2.30
2018-09-17T15:26:55.716Z,2.03
2018-09-17T15:29:24.748Z,2.23
2018-09-17T15:31:53.489Z,2.73
2018-09-17T15:34:22.298Z,2.10
2018-09-17T15:36:51.332Z,2.23
2018-09-17T15:39:21.187Z,1.70
2018-09-17T15:41:50.276Z,2.70
2018-09-17T15:44:19.104Z,1.53
2018-09-17T15:46:48.102Z,1.77
2018-09-17T15:49:17.113Z,2.03
2018-09-17T15:51:45.995Z,2.07
2018-09-17T15:54:15.090Z,1.90
2018-09-17T15:56:44.080Z,1.73
2018-09-17T15:59:12.984Z,1.60
2018-09-17T16:01:42.200Z,2.40
2018-09-17T16:04:11.231Z,2.60
2018-09-17T16:06:40.809Z,2.67
2018-09-17T16:09:09.522Z,2.53
2018-09-17T16:11:38.576Z,2.13
2018-09-17T16:14:08.561Z,3.13
2018-09-17T16:16:37.264Z,2.03
2018-09-17T16:19:06.145Z,1.90
2018-09-17T16:21:35.217Z,1.83
2018-09-17T16:24:04.647Z,2.07
2018-09-17T16:26:33.682Z,2.03
2018-09-17T16:29:02.420Z,2.40
2018-09-17T16:31:31.473Z,2.20
2018-09-17T16:34:00.213Z,2.13
2018-09-17T16:36:29.623Z,2.00
2018-09-17T16:38:58.926Z,1.90
2018-09-17T16:41:27.711Z,1.80
2018-09-17T16:43:56.458Z,1.90
2018-09-17T16:46:25.578Z,3.10
2018-09-17T16:48:54.664Z,2.30
2018-09-17T16:51:23.396Z,2.30
2018-09-17T16:53:52.343Z,2.13
2018-09-17T16:56:21.526Z,2.50
2018-09-17T16:58:50.590Z,2.20
2018-09-17T17:01:19.302Z,2.40
2018-09-17T17:03:48.610Z,2.03
2018-09-17T17:06:18.277Z,2.40
2018-09-17T17:08:49.321Z,1.60
2018-09-17T17:11:23.274Z,1.70
2018-09-17T17:13:53.775Z,1.43
2018-09-17T17:16:28.510Z,1.67
2018-09-17T17:19:04.849Z,1.60
2018-09-17T17:21:34.191Z,1.93
2018-09-17T17:24:05.157Z,2.17
2018-09-17T17:26:34.793Z,3.10
2018-09-17T17:29:03.818Z,21.73
2018-09-17T17:31:32.617Z,10.97
2018-09-17T17:34:02.380Z,6.50
2018-09-17T17:36:31.090Z,3.00
2018-09-17T17:39:00.207Z,2.53
2018-09-17T17:41:29.305Z,1.57
2018-09-17T17:43:59.245Z,2.47
2018-09-17T17:46:28.267Z,1.60
2018-09-17T17:48:57.036Z,1.50
2018-09-17T17:51:26.827Z,2.00
2018-09-17T17:53:56.938Z,1.83
2018-09-17T17:56:28.963Z,1.80
2018-09-17T17:58:57.686Z,1.40
2018-09-17T18:01:28.213Z,2.13
2018-09-17T18:03:57.472Z,1.90
2018-09-17T18:06:26.230Z,1.60
2018-09-17T18:08:55.078Z,1.83
2018-09-17T18:11:24.017Z,2.00
2018-09-17T18:13:53.443Z,1.77
2018-09-17T18:16:26.251Z,2.50
2018-09-17T18:18:55.503Z,1.90
2018-09-17T18:21:24.254Z,1.50
2018-09-17T18:23:53.661Z,1.93
2018-09-17T18:26:22.408Z,2.83
2018-09-17T18:28:51.758Z,2.17
2018-09-17T18:31:20.487Z,2.27
2018-09-17T18:33:49.269Z,2.17
2018-09-17T18:36:18.392Z,2.03
2018-09-17T18:38:47.493Z,1.73
2018-09-17T18:41:16.252Z,1.87
2018-09-17T18:43:45.418Z,2.07
2018-09-17T18:46:14.471Z,2.50
2018-09-17T18:48:43.329Z,1.90
2018-09-17T18:51:12.684Z,1.90
2018-09-17T18:53:41.765Z,2.23
2018-09-17T18:56:10.844Z,1.90
2018-09-17T18:58:39.586Z,1.80
2018-09-17T19:01:08.554Z,1.50
2018-09-17T19:03:37.705Z,2.03
2018-09-17T19:06:06.789Z,2.30
2018-09-17T19:08:35.572Z,2.00
2018-09-17T19:11:04.654Z,2.23
2018-09-17T19:13:34.181Z,2.07
2018-09-17T19:16:02.942Z,3.27
2018-09-17T19:18:31.689Z,2.40
2018-09-17T19:21:00.940Z,2.10
2018-09-17T19:23:35.189Z,2.07
2018-09-17T19:26:04.061Z,2.20
2018-09-17T19:28:37.978Z,2.00
2018-09-17T19:31:07.302Z,2.13
2018-09-17T19:33:36.292Z,2.63
2018-09-17T19:36:05.308Z,2.90
2018-09-17T19:38:39.305Z,3.00
2018-09-17T19:41:08.657Z,2.70
2018-09-17T19:43:37.880Z,3.20
2018-09-17T19:46:11.924Z,2.07
2018-09-17T19:48:40.774Z,2.90
2018-09-17T19:52:13.506Z,2.80
2018-09-17T19:54:42.705Z,3.20
2018-09-17T19:57:16.567Z,3.30
2018-09-17T19:59:56.491Z,3.10
2018-09-17T20:02:25.630Z,2.70
2018-09-17T20:04:59.822Z,3.57
2018-09-17T20:07:29.104Z,3.03
2018-09-17T20:09:58.602Z,3.40
2018-09-17T20:12:27.751Z,2.87
2018-09-17T20:14:56.507Z,3.07
2018-09-17T20:17:25.954Z,3.53
2018-09-17T20:19:54.715Z,3.30
2018-09-17T20:22:23.547Z,2.80
2018-09-17T20:24:52.350Z,3.07
2018-09-17T20:27:21.075Z,2.77
2018-09-17T20:29:50.211Z,5.43
2018-09-17T20:32:19.211Z,3.63
2018-09-17T20:34:48.064Z,2.87
2018-09-17T20:37:16.924Z,2.67
2018-09-17T20:39:45.693Z,3.43
2018-09-17T20:42:14.516Z,3.20
2018-09-17T20:44:43.426Z,3.30
2018-09-17T20:47:12.385Z,3.40
2018-09-17T20:49:41.934Z,3.30
2018-09-17T20:52:11.314Z,2.67
2018-09-17T20:54:40.139Z,3.83
2018-09-17T20:57:09.206Z,2.90
2018-09-17T20:59:37.916Z,4.17
2018-09-17T21:02:06.706Z,3.07
2018-09-17T21:04:35.443Z,3.43
2018-09-17T21:07:04.470Z,3.53
2018-09-17T21:09:33.801Z,2.80
2018-09-17T21:12:03.141Z,3.50
2018-09-17T21:14:32.172Z,2.60
2018-09-17T21:17:02.604Z,3.47
2018-09-17T21:19:33.152Z,4.37
2018-09-17T21:22:04.284Z,3.83
2018-09-17T21:24:35.525Z,4.57
2018-09-17T21:27:06.660Z,4.50
2018-09-17T21:29:37.904Z,4.10
2018-09-17T21:32:08.660Z,3.47
2018-09-17T21:34:39.590Z,4.07
2018-09-17T21:37:10.725Z,5.00
2018-09-17T21:39:41.349Z,5.33
2018-09-17T21:42:11.337Z,4.70
2018-09-17T21:44:41.602Z,5.20
2018-09-17T21:47:11.737Z,5.30
2018-09-17T21:49:40.807Z,4.43
2018-09-17T21:52:10.086Z,4.50
2018-09-17T21:54:39.378Z,5.10
2018-09-17T21:57:08.164Z,4.93
2018-09-17T21:59:37.492Z,4.13
2018-09-17T22:02:06.540Z,4.77
2018-09-17T22:04:35.952Z,5.00
2018-09-17T22:07:04.743Z,5.90
2018-09-17T22:09:33.468Z,4.50
2018-09-17T22:12:02.433Z,4.90
2018-09-17T22:14:31.520Z,5.60
2018-09-17T22:17:00.240Z,4.90
2018-09-17T22:19:29.222Z,5.47
2018-09-17T22:21:58.266Z,4.90
2018-09-17T22:24:27.294Z,5.10
2018-09-17T22:26:56.304Z,5.70
2018-09-17T22:29:25.106Z,5.93
2018-09-17T22:31:54.419Z,6.90
2018-09-17T22:34:23.410Z,5.87
2018-09-17T22:36:52.162Z,6.87
2018-09-17T22:39:21.553Z,6.30
2018-09-17T22:41:50.689Z,8.20
2018-09-17T22:44:19.697Z,8.57
2018-09-17T22:46:48.518Z,8.40
2018-09-17T22:49:17.239Z,8.63
2018-09-17T22:51:46.253Z,9.00
2018-09-17T22:54:15.271Z,8.20
2018-09-17T22:56:43.999Z,8.00
2018-09-17T22:59:13.055Z,8.80
2018-09-17T23:01:41.792Z,8.70
2018-09-17T23:04:10.759Z,8.27
2018-09-17T23:06:39.825Z,8.40
2018-09-17T23:09:11.136Z,9.37
2018-09-17T23:11:40.122Z,8.03
2018-09-17T23:14:08.885Z,9.00
2018-09-17T23:16:38.190Z,9.70
2018-09-17T23:19:07.646Z,9.23
2018-09-17T23:21:37.235Z,8.90
2018-09-17T23:24:06.888Z,9.40
2018-09-17T23:26:36.393Z,9.33
2018-09-17T23:29:05.140Z,9.50
2018-09-17T23:31:33.840Z,10.27
2018-09-17T23:34:02.630Z,10.47
2018-09-17T23:36:31.688Z,10.47
2018-09-17T23:39:00.514Z,9.60
2018-09-17T23:41:29.566Z,12.13
2018-09-17T23:43:58.618Z,10.40
2018-09-17T23:46:27.641Z,9.90
2018-09-17T23:48:56.936Z,11.87
2018-09-17T23:51:26.222Z,10.80
2018-09-17T23:53:54.990Z,10.30
2018-09-17T23:56:23.769Z,10.77
2018-09-17T23:58:52.837Z,11.60
